Time;durP1;ratioP1;P1;durP2;ratioP2;P2;SDS_P1;SDS_P2;PMS_P1;PMS_P2;Temp;Humidity;BMP_temperature;BMP_pressure;BME280_temperature;BME280_humidity;BME280_pressure;Samples;Min_cycle;Max_cycle;Signal;HPM_P1;HPM_P2
2022/10/31 00:01:24;;;;;;;;;;;12.60;99.90;;;;;;5094993;28;1105;-67
2022/10/31 00:03:50;;;;;;;;;;;12.60;99.90;;;;;;5112251;28;1354;-67
2022/10/31 00:06:18;;;;;;;;;;;12.80;99.90;;;;;;5112956;28;1313;-67
2022/10/31 00:08:44;;;;;;;;;;;12.50;99.90;;;;;;5113108;28;1909;-67
2022/10/31 00:11:10;;;;;;;;;;;12.50;99.90;;;;;;5112072;28;1314;-67
2022/10/31 00:13:36;;;;;;;;;;;12.40;99.90;;;;;;5112799;28;1196;-67
2022/10/31 00:16:01;;;;;;;;;;;12.60;99.90;;;;;;5094308;28;2314;-67
2022/10/31 00:18:27;;;;;;;;;;;12.40;99.90;;;;;;5112056;28;1281;-67
2022/10/31 00:21:00;;;;;;;;;;;12.10;99.90;;;;;;5112886;28;1179;-67
2022/10/31 00:23:26;;;;;;;;;;;;;;;;;;5112699;28;1104;-67
2022/10/31 00:25:52;;;;;;;;;;;11.90;99.90;;;;;;5112064;28;1104;-67
2022/10/31 00:28:17;;;;;;;;;;;11.90;99.90;;;;;;5112863;28;1123;-67
2022/10/31 00:30:43;;;;;;;;;;;11.80;99.90;;;;;;5112526;28;1917;-67
2022/10/31 00:33:08;;;;;;;;;;;11.70;99.90;;;;;;5111917;28;1112;-67
2022/10/31 00:35:35;;;;;;;;;;;11.70;99.90;;;;;;5094026;28;1326;-67
2022/10/31 00:38:01;;;;;;;;;;;11.70;99.90;;;;;;5111824;28;982;-67
2022/10/31 00:40:26;;;;;;;;;;;11.80;99.90;;;;;;5112557;28;1092;-67
2022/10/31 00:42:53;;;;;;;;;;;11.60;99.90;;;;;;5112528;28;1132;-67
2022/10/31 00:45:18;;;;;;;;;;;11.50;99.90;;;;;;5111712;28;1146;-67
2022/10/31 00:47:44;;;;;;;;;;;11.40;99.90;;;;;;5093772;28;1112;-67
2022/10/31 00:50:09;;;;;;;;;;;11.40;99.90;;;;;;5112081;28;2029;-67
2022/10/31 00:52:36;;;;;;;;;;;11.30;99.90;;;;;;5093411;28;1140;-67
2022/10/31 00:55:02;;;;;;;;;;;11.30;99.90;;;;;;5112391;28;1100;-67
2022/10/31 00:57:28;;;;;;;;;;;11.20;99.90;;;;;;5094203;28;1127;-67
2022/10/31 00:59:53;;;;;;;;;;;11.20;99.90;;;;;;5093178;28;1172;-67
2022/10/31 01:02:19;;;;;;;;;;;11.30;99.90;;;;;;5093935;28;1097;-67
2022/10/31 01:04:45;;;;;;;;;;;11.30;99.90;;;;;;5111998;28;1354;-67
2022/10/31 01:07:12;;;;;;;;;;;11.30;99.90;;;;;;5092212;28;1554;-67
2022/10/31 01:09:37;;;;;;;;;;;11.20;99.90;;;;;;5093694;28;1930;-67
2022/10/31 01:12:03;;;;;;;;;;;11.20;99.90;;;;;;5073496;28;1204;-67
2022/10/31 01:14:29;;;;;;;;;;;11.10;99.90;;;;;;5088148;28;1117;-67
2022/10/31 01:16:56;;;;;;;;;;;11.10;99.90;;;;;;5110655;28;1244;-67
2022/10/31 01:19:22;;;;;;;;;;;11.20;99.90;;;;;;5076386;28;1101;-67
2022/10/31 01:21:47;;;;;;;;;;;11.30;99.90;;;;;;5110915;28;1132;-67
2022/10/31 01:24:13;;;;;;;;;;;11.30;99.90;;;;;;5111490;28;1144;-67
2022/10/31 01:26:39;;;;;;;;;;;11.30;99.90;;;;;;5093278;28;1168;-67
2022/10/31 01:29:06;;;;;;;;;;;11.30;99.90;;;;;;5109238;28;1968;-67
2022/10/31 01:31:34;;;;;;;;;;;11.30;99.90;;;;;;5110868;28;1297;-67
2022/10/31 01:33:59;;;;;;;;;;;11.30;99.90;;;;;;5111561;28;1147;-67
2022/10/31 01:36:25;;;;;;;;;;;11.30;99.90;;;;;;5110939;28;1085;-67
2022/10/31 01:38:52;;;;;;;;;;;11.20;99.90;;;;;;5111460;28;1144;-67
2022/10/31 01:41:19;;;;;;;;;;;11.10;99.90;;;;;;5110850;28;1069;-67
2022/10/31 01:43:48;;;;;;;;;;;10.90;99.90;;;;;;5092705;28;1124;-67
2022/10/31 01:46:15;;;;;;;;;;;10.80;99.90;;;;;;5092890;28;1120;-67
2022/10/31 01:48:41;;;;;;;;;;;10.70;99.90;;;;;;5110436;28;1981;-67
2022/10/31 01:51:08;;;;;;;;;;;10.70;99.90;;;;;;5110829;28;1123;-67
2022/10/31 01:53:34;;;;;;;;;;;10.70;99.90;;;;;;5111178;28;1167;-67
2022/10/31 01:56:00;;;;;;;;;;;10.80;99.90;;;;;;5110529;28;1092;-67
2022/10/31 01:58:27;;;;;;;;;;;10.90;99.90;;;;;;5089105;28;1166;-66
2022/10/31 02:00:57;;;;;;;;;;;11.10;99.90;;;;;;5101750;28;1172;-67
2022/10/31 02:03:23;;;;;;;;;;;11.20;99.90;;;;;;5088536;28;1105;-67
2022/10/31 02:05:49;;;;;;;;;;;11.40;99.90;;;;;;5108313;28;1651;-67
2022/10/31 02:08:16;;;;;;;;;;;11.40;99.90;;;;;;5090249;28;1133;-67
2022/10/31 02:10:42;;;;;;;;;;;11.50;99.90;;;;;;5085867;28;2034;-67
2022/10/31 02:13:08;;;;;;;;;;;11.50;99.90;;;;;;5109450;28;1116;-67
2022/10/31 02:15:43;;;;;;;;;;;11.50;99.90;;;;;;5092493;28;1128;-67
2022/10/31 02:18:09;;;;;;;;;;;11.50;99.90;;;;;;5090663;28;1092;-67
2022/10/31 02:20:40;;;;;;;;;;;11.40;99.90;;;;;;5092428;28;1135;-67
2022/10/31 02:23:16;;;;;;;;;;;11.40;99.90;;;;;;5110577;28;1160;-67
2022/10/31 02:25:52;;;;;;;;;;;11.40;99.90;;;;;;5091570;28;981;-67
2022/10/31 02:28:30;;;;;;;;;;;11.40;99.90;;;;;;5108936;28;1167;-67
2022/10/31 02:31:12;;;;;;;;;;;11.30;99.90;;;;;;5091269;28;1128;-67
2022/10/31 02:33:43;;;;;;;;;;;11.30;99.90;;;;;;5090918;28;1171;-67
2022/10/31 02:36:08;;;;;;;;;;;11.20;99.90;;;;;;5083277;28;1192;-67
2022/10/31 02:38:35;;;;;;;;;;;11.10;99.90;;;;;;5098445;28;1170;-67
2022/10/31 02:41:06;;;;;;;;;;;11.00;99.90;;;;;;5073892;28;1160;-67
2022/10/31 02:43:42;;;;;;;;;;;11.00;99.90;;;;;;5105308;28;1147;-67
2022/10/31 02:46:13;;;;;;;;;;;10.90;99.90;;;;;;5087101;28;1113;-67
2022/10/31 02:48:41;;;;;;;;;;;10.80;99.90;;;;;;5089923;28;1976;-67
2022/10/31 02:51:08;;;;;;;;;;;10.70;99.90;;;;;;5074019;28;1131;-67
2022/10/31 02:53:35;;;;;;;;;;;10.70;99.90;;;;;;5108703;28;1215;-67
2022/10/31 02:56:05;;;;;;;;;;;10.70;99.90;;;;;;5092029;28;1175;-67
2022/10/31 02:58:35;;;;;;;;;;;10.60;99.90;;;;;;5109020;28;1123;-67
2022/10/31 03:01:09;;;;;;;;;;;10.60;99.90;;;;;;5109347;28;1167;-67
2022/10/31 03:03:40;;;;;;;;;;;10.60;99.90;;;;;;5090179;28;1155;-67
2022/10/31 03:06:08;;;;;;;;;;;10.70;99.90;;;;;;5107777;28;1627;-67
2022/10/31 03:08:39;;;;;;;;;;;10.70;99.90;;;;;;5104525;28;1971;-67
2022/10/31 03:11:06;;;;;;;;;;;10.80;99.90;;;;;;5082805;28;1274;-67
2022/10/31 03:13:37;;;;;;;;;;;10.90;99.90;;;;;;5086018;28;1242;-67
2022/10/31 03:16:15;;;;;;;;;;;10.90;99.90;;;;;;5086312;28;1097;-67
2022/10/31 03:18:46;;;;;;;;;;;10.90;99.90;;;;;;5071052;28;1097;-67
2022/10/31 03:21:17;;;;;;;;;;;11.00;99.90;;;;;;5086480;28;1179;-67
2022/10/31 03:23:44;;;;;;;;;;;11.00;99.90;;;;;;5103770;28;1167;-67
2022/10/31 03:26:19;;;;;;;;;;;11.10;99.90;;;;;;5103379;28;1112;-67
2022/10/31 03:28:48;;;;;;;;;;;11.10;99.90;;;;;;5077033;28;1906;-67
2022/10/31 03:31:16;;;;;;;;;;;11.10;99.90;;;;;;5095676;28;1149;-67
2022/10/31 03:33:42;;;;;;;;;;;11.10;99.90;;;;;;5090037;28;1251;-67
2022/10/31 03:36:10;;;;;;;;;;;11.10;99.90;;;;;;5100015;28;1318;-66
2022/10/31 03:38:37;;;;;;;;;;;11.00;99.90;;;;;;5108137;28;1289;-66
2022/10/31 03:41:05;;;;;;;;;;;11.00;99.90;;;;;;5081847;28;1442;-67
2022/10/31 03:43:32;;;;;;;;;;;10.90;99.90;;;;;;5109191;28;1231;-66
2022/10/31 03:45:59;;;;;;;;;;;10.70;99.90;;;;;;5087857;28;1174;-66
2022/10/31 03:48:24;;;;;;;;;;;10.70;99.90;;;;;;5105197;28;1113;-67
2022/10/31 03:50:59;;;;;;;;;;;10.70;99.90;;;;;;5111242;28;1981;-66
2022/10/31 03:53:32;;;;;;;;;;;10.70;99.90;;;;;;5093487;28;1226;-66
2022/10/31 03:56:02;;;;;;;;;;;10.70;99.90;;;;;;5110915;28;1084;-66
2022/10/31 03:58:37;;;;;;;;;;;10.70;99.90;;;;;;5094779;28;1212;-66
2022/10/31 04:01:05;;;;;;;;;;;10.70;99.90;;;;;;5111891;28;1111;-66
2022/10/31 04:03:34;;;;;;;;;;;10.60;99.90;;;;;;5090693;28;1140;-67
2022/10/31 04:06:04;;;;;;;;;;;10.60;99.90;;;;;;5099637;28;1635;-66
2022/10/31 04:08:32;;;;;;;;;;;10.60;99.90;;;;;;5112054;28;1959;-66
2022/10/31 04:10:59;;;;;;;;;;;10.70;99.90;;;;;;5111354;28;1104;-66
2022/10/31 04:13:28;;;;;;;;;;;10.70;99.90;;;;;;5111845;28;957;-66
2022/10/31 04:16:02;;;;;;;;;;;10.70;99.90;;;;;;5110665;28;1124;-66
2022/10/31 04:18:27;;;;;;;;;;;10.70;99.90;;;;;;5113020;28;1152;-66
2022/10/31 04:21:01;;;;;;;;;;;10.80;99.90;;;;;;5094664;28;1188;-66
2022/10/31 04:23:27;;;;;;;;;;;10.80;99.90;;;;;;5111015;28;1044;-66
2022/10/31 04:25:54;;;;;;;;;;;10.90;99.90;;;;;;5111570;28;1120;-66
2022/10/31 04:28:19;;;;;;;;;;;10.90;99.90;;;;;;5112651;28;1112;-66
2022/10/31 04:30:45;;;;;;;;;;;10.90;99.90;;;;;;5111244;28;1978;-66
2022/10/31 04:33:10;;;;;;;;;;;11.00;99.90;;;;;;5112669;28;1108;-66
2022/10/31 04:35:37;;;;;;;;;;;11.00;99.90;;;;;;5093293;28;1251;-66
2022/10/31 04:38:03;;;;;;;;;;;11.00;99.90;;;;;;5093575;28;990;-66
2022/10/31 04:40:29;;;;;;;;;;;11.00;99.90;;;;;;5077424;28;1105;-66
2022/10/31 04:43:14;;;;;;;;;;;10.90;99.90;;;;;;5110264;28;1240;-66
2022/10/31 04:45:41;;;;;;;;;;;10.90;99.90;;;;;;5092382;28;1116;-66
2022/10/31 04:48:08;;;;;;;;;;;11.00;99.90;;;;;;5091005;28;1215;-66
2022/10/31 04:50:35;;;;;;;;;;;10.90;99.90;;;;;;5090431;28;1977;-66
2022/10/31 04:53:02;;;;;;;;;;;10.90;99.90;;;;;;5073252;28;1141;-66
2022/10/31 04:55:33;;;;;;;;;;;10.90;99.90;;;;;;5084395;28;1506;-66
2022/10/31 04:58:16;;;;;;;;;;;10.90;99.90;;;;;;5071770;28;1276;-66
2022/10/31 05:00:42;;;;;;;;;;;10.90;99.90;;;;;;5087115;28;1254;-66
2022/10/31 05:03:08;;;;;;;;;;;11.00;99.90;;;;;;5091105;28;1147;-66
2022/10/31 05:05:34;;;;;;;;;;;11.00;99.90;;;;;;5093884;28;1306;-66
2022/10/31 05:08:02;;;;;;;;;;;10.90;99.90;;;;;;5091405;28;1602;-66
2022/10/31 05:10:30;;;;;;;;;;;10.80;99.90;;;;;;5093762;28;1906;-66
2022/10/31 05:12:59;;;;;;;;;;;10.70;99.90;;;;;;5110060;28;1143;-66
2022/10/31 05:15:43;;;;;;;;;;;10.60;99.90;;;;;;5111922;28;949;-66
2022/10/31 05:18:27;;;;;;;;;;;10.40;99.90;;;;;;5111852;28;1084;-66
2022/10/31 05:21:30;;;;;;;;;;;10.30;99.90;;;;;;5110691;28;1163;-66
2022/10/31 05:24:00;;;;;;;;;;;10.30;99.90;;;;;;5076496;28;1132;-66
2022/10/31 05:26:27;;;;;;;;;;;10.30;99.90;;;;;;5092599;28;1143;-66
2022/10/31 05:28:54;;;;;;;;;;;10.40;99.90;;;;;;5093083;28;1914;-66
2022/10/31 05:31:19;;;;;;;;;;;10.40;99.90;;;;;;5093102;28;1286;-66
2022/10/31 05:33:45;;;;;;;;;;;10.50;99.90;;;;;;5092323;28;1124;-66
2022/10/31 05:36:29;;;;;;;;;;;10.50;99.90;;;;;;5111184;28;1096;-66
2022/10/31 05:38:58;;;;;;;;;;;10.60;99.90;;;;;;5093282;28;1012;-66
2022/10/31 05:41:27;;;;;;;;;;;10.60;99.90;;;;;;5092172;28;1062;-66
2022/10/31 05:44:01;;;;;;;;;;;10.50;99.90;;;;;;5092690;28;1175;-66
2022/10/31 05:46:29;;;;;;;;;;;10.40;99.90;;;;;;5093162;28;1145;-66
2022/10/31 05:49:30;;;;;;;;;;;10.40;99.90;;;;;;5110052;28;1968;-65
2022/10/31 05:52:18;;;;;;;;;;;10.30;99.90;;;;;;5110284;28;1158;-66
2022/10/31 05:54:52;;;;;;;;;;;10.30;99.90;;;;;;5074822;28;1187;-66
2022/10/31 05:57:18;;;;;;;;;;;10.40;99.90;;;;;;5092867;28;1179;-66
2022/10/31 05:59:43;;;;;;;;;;;10.40;99.90;;;;;;5092738;28;1231;-66
2022/10/31 06:02:09;;;;;;;;;;;10.30;99.90;;;;;;5109912;28;1159;-66
2022/10/31 06:05:03;;;;;;;;;;;10.40;99.90;;;;;;5110280;28;1365;-66
2022/10/31 06:07:32;;;;;;;;;;;10.40;99.90;;;;;;5092447;28;1572;-66
2022/10/31 06:09:57;;;;;;;;;;;10.30;99.90;;;;;;5091991;28;1910;-66
2022/10/31 06:12:23;;;;;;;;;;;10.30;99.90;;;;;;5092671;28;1104;-66
2022/10/31 06:15:12;;;;;;;;;;;10.30;99.90;;;;;;5075592;28;1089;-66
2022/10/31 06:17:38;;;;;;;;;;;10.30;99.90;;;;;;5091677;28;1174;-66
2022/10/31 06:20:05;;;;;;;;;;;10.30;99.90;;;;;;5110714;28;1139;-66
2022/10/31 06:22:35;;;;;;;;;;;10.30;99.90;;;;;;5091231;28;1521;-66
2022/10/31 06:25:01;;;;;;;;;;;10.30;99.90;;;;;;5092492;28;1209;-66
2022/10/31 06:27:29;;;;;;;;;;;10.30;99.90;;;;;;5075467;28;1140;-66
2022/10/31 06:29:56;;;;;;;;;;;10.30;99.90;;;;;;5091484;28;1965;-66
2022/10/31 06:32:29;;;;;;;;;;;10.30;99.90;;;;;;5094744;28;1107;-66
2022/10/31 06:34:55;;;;;;;;;;;10.30;99.90;;;;;;5110493;28;1168;-66
2022/10/31 06:37:22;;;;;;;;;;;10.20;99.90;;;;;;5090916;28;1168;-66
2022/10/31 06:39:49;;;;;;;;;;;10.20;99.90;;;;;;5092159;28;1199;-66
2022/10/31 06:42:16;;;;;;;;;;;10.20;99.90;;;;;;5092043;28;1239;-66
2022/10/31 06:44:42;;;;;;;;;;;10.20;99.90;;;;;;5108931;28;1195;-66
2022/10/31 06:47:26;;;;;;;;;;;10.20;99.90;;;;;;5109358;28;1135;-66
2022/10/31 06:49:58;;;;;;;;;;;10.20;99.90;;;;;;5109966;28;1909;-66
2022/10/31 06:52:25;;;;;;;;;;;10.30;99.90;;;;;;5090920;28;1099;-66
2022/10/31 06:54:51;;;;;;;;;;;10.30;99.90;;;;;;5091944;28;1101;-66
2022/10/31 06:57:20;;;;;;;;;;;10.40;99.90;;;;;;5091867;28;1298;-66
2022/10/31 06:59:45;;;;;;;;;;;10.50;99.90;;;;;;5074139;28;1211;-66
2022/10/31 07:02:21;;;;;;;;;;;10.60;99.90;;;;;;5108925;28;1151;-65
2022/10/31 07:04:48;;;;;;;;;;;10.60;99.90;;;;;;5096167;28;1394;-65
2022/10/31 07:07:16;;;;;;;;;;;10.60;99.90;;;;;;5090529;28;1441;-66
2022/10/31 07:09:42;;;;;;;;;;;10.70;99.90;;;;;;5104794;28;1959;-66
2022/10/31 07:12:10;;;;;;;;;;;10.80;99.90;;;;;;5107800;28;1131;-66
2022/10/31 07:14:39;;;;;;;;;;;10.90;99.90;;;;;;5091915;28;1100;-65
2022/10/31 07:17:05;;;;;;;;;;;11.00;99.90;;;;;;5074958;28;1025;-66
2022/10/31 07:19:34;;;;;;;;;;;11.00;99.90;;;;;;5089832;28;1116;-65
2022/10/31 07:21:59;;;;;;;;;;;11.10;99.90;;;;;;5109565;28;1269;-65
2022/10/31 07:24:27;;;;;;;;;;;11.10;99.90;;;;;;5067451;28;1291;-65
2022/10/31 07:27:14;;;;;;;;;;;11.10;99.90;;;;;;5103507;28;1251;-65
2022/10/31 07:29:41;;;;;;;;;;;11.10;99.90;;;;;;5109201;28;2050;-66
2022/10/31 07:32:07;;;;;;;;;;;11.10;99.90;;;;;;5087615;28;1218;-66
2022/10/31 07:34:36;;;;;;;;;;;11.10;99.90;;;;;;5090585;28;1254;-66
2022/10/31 07:37:20;;;;;;;;;;;11.20;99.90;;;;;;5090321;28;1227;-66
2022/10/31 07:39:47;;;;;;;;;;;11.20;99.90;;;;;;5108050;28;1044;-65
2022/10/31 07:42:13;;;;;;;;;;;11.30;99.90;;;;;;5091222;28;1116;-65
2022/10/31 07:44:42;;;;;;;;;;;11.30;99.90;;;;;;5108512;28;1183;-65
2022/10/31 07:47:38;;;;;;;;;;;11.40;99.90;;;;;;5108644;28;1259;-66
2022/10/31 07:50:23;;;;;;;;;;;11.60;99.90;;;;;;5109082;28;1917;-65
2022/10/31 07:53:09;;;;;;;;;;;12.50;99.90;;;;;;5109530;28;1136;-66
2022/10/31 07:55:48;;;;;;;;;;;11.90;99.90;;;;;;5082071;28;1247;-66
2022/10/31 07:58:16;;;;;;;;;;;12.00;99.90;;;;;;5088084;28;1148;-66
2022/10/31 08:00:42;;;;;;;;;;;12.10;99.90;;;;;;5091660;28;1288;-66
2022/10/31 08:03:11;;;;;;;;;;;12.30;99.90;;;;;;5090190;28;1307;-66
2022/10/31 08:05:56;;;;;;;;;;;12.50;99.90;;;;;;5109307;28;1607;-65
2022/10/31 08:08:33;;;;;;;;;;;12.60;99.90;;;;;;5073321;28;1116;-66
2022/10/31 08:10:59;;;;;;;;;;;12.80;99.90;;;;;;5090869;28;1984;-65
2022/10/31 08:13:25;;;;;;;;;;;12.90;99.90;;;;;;5090806;28;1124;-66
2022/10/31 08:15:53;;;;;;;;;;;13.00;99.90;;;;;;5090386;28;1104;-66
2022/10/31 08:18:23;;;;;;;;;;;13.20;99.90;;;;;;5077574;28;990;-66
2022/10/31 08:20:49;;;;;;;;;;;13.20;99.90;;;;;;5094658;28;1104;-66
2022/10/31 08:23:15;;;;;;;;;;;13.30;99.90;;;;;;5093815;28;1150;-66
2022/10/31 08:25:42;;;;;;;;;;;13.40;99.90;;;;;;5094400;28;1101;-66
2022/10/31 08:28:08;;;;;;;;;;;13.50;99.90;;;;;;5094383;28;1113;-66
2022/10/31 08:30:35;;;;;;;;;;;13.60;99.90;;;;;;5093337;28;1906;-66
2022/10/31 08:33:31;;;;;;;;;;;13.70;99.90;;;;;;5112387;28;1212;-66
2022/10/31 08:36:31;;;;;;;;;;;14.00;99.90;;;;;;5111505;28;1129;-66
2022/10/31 08:39:13;;;;;;;;;;;14.10;99.90;;;;;;5111138;28;1168;-66
2022/10/31 08:41:39;;;;;;;;;;;14.30;99.90;;;;;;5111179;28;1077;-66
2022/10/31 08:44:09;;;;;;;;;;;14.40;99.90;;;;;;5110575;28;1179;-66
2022/10/31 08:46:36;;;;;;;;;;;14.50;99.90;;;;;;5094281;28;1151;-67
2022/10/31 08:49:02;;;;;;;;;;;14.70;99.90;;;;;;5088108;28;3292;-66
2022/10/31 08:51:28;;;;;;;;;;;14.70;99.90;;;;;;5091626;28;3216;-66
2022/10/31 08:53:55;;;;;;;;;;;14.80;99.90;;;;;;5097786;28;3272;-66
2022/10/31 08:56:32;;;;;;;;;;;14.80;99.90;;;;;;5109046;28;3367;-66
2022/10/31 08:58:59;;;;;;;;;;;14.80;99.90;;;;;;5085008;28;3553;-66
2022/10/31 09:01:34;;;;;;;;;;;14.80;99.90;;;;;;5093209;28;1468;-66
2022/10/31 09:03:59;;;;;;;;;;;14.80;99.90;;;;;;5086928;28;3441;-66
2022/10/31 09:06:26;;;;;;;;;;;14.80;99.90;;;;;;5105008;28;1455;-66
2022/10/31 09:08:53;;;;;;;;;;;14.70;99.90;;;;;;5089578;28;1982;-66
2022/10/31 09:11:18;;;;;;;;;;;14.70;99.90;;;;;;5089149;28;1093;-66
2022/10/31 09:14:13;;;;;;;;;;;14.70;99.90;;;;;;5107621;28;1345;-67
2022/10/31 09:16:39;;;;;;;;;;;14.70;99.90;;;;;;5106128;28;3420;-66
2022/10/31 09:19:08;;;;;;;;;;;14.70;99.90;;;;;;5091354;28;1278;-67
2022/10/31 09:21:34;;;;;;;;;;;14.60;99.90;;;;;;5092856;28;1092;-66
2022/10/31 09:24:00;;;;;;;;;;;14.60;99.90;;;;;;5109472;28;1437;-66
2022/10/31 09:26:26;;;;;;;;;;;14.60;99.90;;;;;;5091142;28;1210;-67
2022/10/31 09:29:04;;;;;;;;;;;14.50;99.90;;;;;;5097677;28;1953;-67
2022/10/31 09:31:31;;;;;;;;;;;14.60;99.90;;;;;;5097760;28;1620;-67
2022/10/31 09:34:00;;;;;;;;;;;14.60;99.90;;;;;;5091839;28;1113;-66
2022/10/31 09:36:35;;;;;;;;;;;14.70;99.90;;;;;;5110955;28;1089;-67
2022/10/31 09:39:02;;;;;;;;;;;14.80;99.90;;;;;;5092323;28;1364;-67
2022/10/31 09:41:45;;;;;;;;;;;14.90;99.90;;;;;;5092203;28;1081;-67
2022/10/31 09:44:21;;;;;;;;;;;15.20;99.90;;;;;;5080328;28;1180;-67
2022/10/31 09:46:57;;;;;;;;;;;15.50;99.90;;;;;;5091635;28;1105;-67
2022/10/31 09:49:25;;;;;;;;;;;16.00;99.90;;;;;;5092108;28;2049;-66
2022/10/31 09:51:57;;;;;;;;;;;16.40;99.90;;;;;;5110239;28;1076;-67
2022/10/31 09:54:33;;;;;;;;;;;17.00;99.90;;;;;;5091866;28;1151;-67
2022/10/31 09:57:00;;;;;;;;;;;;;;;;;;5110499;28;1140;-67
2022/10/31 09:59:26;;;;;;;;;;;;;;;;;;5090678;28;1327;-67
2022/10/31 10:01:58;;;;;;;;;;;18.90;99.90;;;;;;5091465;28;1228;-67
2022/10/31 10:04:24;;;;;;;;;;;;;;;;;;5108257;28;1366;-67
2022/10/31 10:07:26;;;;;;;;;;;19.40;99.90;;;;;;5101012;28;1578;-67
2022/10/31 10:10:18;;;;;;;;;;;19.60;99.90;;;;;;5110264;28;1910;-67
2022/10/31 10:13:09;;;;;;;;;;;19.80;99.90;;;;;;5108912;28;1033;-67
2022/10/31 10:15:53;;;;;;;;;;;19.80;99.90;;;;;;5109904;28;1108;-67
2022/10/31 10:18:26;;;;;;;;;;;19.80;99.90;;;;;;5109905;28;1122;-67
2022/10/31 10:20:57;;;;;;;;;;;20.00;99.90;;;;;;5109847;28;1107;-67
2022/10/31 10:23:31;;;;;;;;;;;20.40;99.90;;;;;;5109495;28;1059;-68
2022/10/31 10:26:01;;;;;;;;;;;20.70;99.90;;;;;;5109546;28;1100;-67
2022/10/31 10:28:29;;;;;;;;;;;20.60;99.90;;;;;;5109551;28;1008;-68
2022/10/31 10:31:01;;;;;;;;;;;20.40;99.90;;;;;;5108882;28;1913;-67
2022/10/31 10:33:31;;;;;;;;;;;20.50;99.90;;;;;;5110192;28;1171;-68
2022/10/31 10:35:57;;;;;;;;;;;;;;;;;;5108519;28;1088;-67
2022/10/31 10:38:23;;;;;;;;;;;21.70;99.90;;;;;;5110042;28;1163;-68
2022/10/31 10:40:49;;;;;;;;;;;22.50;99.90;;;;;;5109360;28;1105;-68
2022/10/31 10:43:24;;;;;;;;;;;23.00;99.90;;;;;;5109130;28;1159;-68
2022/10/31 10:48:41;;;;;;;;;;;23.60;98.80;;;;;;5109720;28;1168;-68
2022/10/31 10:51:10;;;;;;;;;;;22.80;98.50;;;;;;5107473;28;1987;-68
2022/10/31 10:53:59;;;;;;;;;;;21.90;99.90;;;;;;5109514;28;1211;-68
2022/10/31 10:56:32;;;;;;;;;;;21.30;99.90;;;;;;5109626;28;1183;-68
2022/10/31 10:58:58;;;;;;;;;;;20.90;99.90;;;;;;5090578;28;1104;-68
2022/10/31 11:01:24;;;;;;;;;;;20.80;99.90;;;;;;5109513;28;1090;-68
2022/10/31 11:03:50;;;;;;;;;;;20.80;99.90;;;;;;5109022;28;1346;-68
2022/10/31 11:06:17;;;;;;;;;;;21.00;99.90;;;;;;5109353;28;1336;-68
2022/10/31 11:08:43;;;;;;;;;;;21.10;99.90;;;;;;5109699;28;1092;-68
2022/10/31 11:11:14;;;;;;;;;;;21.40;99.90;;;;;;5108473;28;1905;-68
2022/10/31 11:13:41;;;;;;;;;;;21.90;99.90;;;;;;5108902;28;1230;-68
2022/10/31 11:16:08;;;;;;;;;;;22.20;99.80;;;;;;5109108;28;1199;-68
2022/10/31 11:18:36;;;;;;;;;;;22.30;99.70;;;;;;5108500;28;1084;-68
2022/10/31 11:21:04;;;;;;;;;;;22.30;99.50;;;;;;5108212;28;1019;-68
2022/10/31 11:23:30;;;;;;;;;;;22.10;99.30;;;;;;5090475;28;1243;-67
2022/10/31 11:25:57;;;;;;;;;;;21.50;99.70;;;;;;5108314;28;1196;-68
2022/10/31 11:28:23;;;;;;;;;;;21.00;99.90;;;;;;5097657;28;3131;-68
2022/10/31 11:30:51;;;;;;;;;;;20.40;99.90;;;;;;5108794;28;1914;-67
2022/10/31 11:33:22;;;;;;;;;;;20.00;99.90;;;;;;5108916;28;1139;-67
2022/10/31 11:35:49;;;;;;;;;;;19.50;99.90;;;;;;5109022;28;1108;-68
2022/10/31 11:38:19;;;;;;;;;;;19.10;99.90;;;;;;5109059;28;1111;-67
2022/10/31 11:40:53;;;;;;;;;;;18.80;99.90;;;;;;5090212;28;1101;-67
2022/10/31 11:43:19;;;;;;;;;;;18.50;99.90;;;;;;5109323;28;1069;-68
2022/10/31 11:45:45;;;;;;;;;;;18.30;99.90;;;;;;5109178;28;1141;-67
2022/10/31 11:48:15;;;;;;;;;;;18.30;99.90;;;;;;5084408;28;3194;-67
2022/10/31 11:50:41;;;;;;;;;;;18.20;99.90;;;;;;5100931;28;3304;-67
2022/10/31 11:53:17;;;;;;;;;;;18.20;99.90;;;;;;5110333;28;3165;-67
2022/10/31 11:55:43;;;;;;;;;;;18.00;99.90;;;;;;5112351;28;1122;-68
2022/10/31 11:58:22;;;;;;;;;;;17.90;99.90;;;;;;5084291;28;3088;-67
2022/10/31 12:00:49;;;;;;;;;;;17.90;99.90;;;;;;5109652;28;1235;-67
2022/10/31 12:03:25;;;;;;;;;;;17.90;99.90;;;;;;5111037;28;1226;-67
2022/10/31 12:05:55;;;;;;;;;;;18.00;99.90;;;;;;5111667;28;1389;-67
2022/10/31 12:08:21;;;;;;;;;;;18.40;99.90;;;;;;5111006;28;1235;-67
2022/10/31 12:10:53;;;;;;;;;;;18.90;99.90;;;;;;5113037;28;1913;-67
2022/10/31 12:13:40;;;;;;;;;;;19.60;99.90;;;;;;5112400;28;1142;-67
2022/10/31 12:16:11;;;;;;;;;;;19.80;99.90;;;;;;5093499;28;1120;-68
2022/10/31 12:18:49;;;;;;;;;;;19.90;99.90;;;;;;5094521;28;1140;-67
2022/10/31 12:21:27;;;;;;;;;;;19.70;99.90;;;;;;5096094;28;1047;-68
2022/10/31 12:24:05;;;;;;;;;;;19.40;99.90;;;;;;5112203;28;1176;-67
2022/10/31 12:26:39;;;;;;;;;;;19.10;99.90;;;;;;5111526;28;1219;-67
2022/10/31 12:29:10;;;;;;;;;;;19.00;99.90;;;;;;5111422;28;1905;-67
2022/10/31 12:31:43;;;;;;;;;;;19.00;99.90;;;;;;5112103;28;1126;-67
2022/10/31 12:34:15;;;;;;;;;;;19.10;99.90;;;;;;5112028;28;1139;-68
2022/10/31 12:37:01;;;;;;;;;;;19.40;99.90;;;;;;5111904;28;1142;-67
2022/10/31 12:39:40;;;;;;;;;;;19.50;99.90;;;;;;5111827;28;1269;-68
2022/10/31 12:42:12;;;;;;;;;;;19.40;99.90;;;;;;5110486;28;1148;-68
2022/10/31 12:44:59;;;;;;;;;;;19.30;99.90;;;;;;5111597;28;1120;-67
2022/10/31 12:47:39;;;;;;;;;;;19.10;99.90;;;;;;5111752;28;1120;-67
2022/10/31 12:50:22;;;;;;;;;;;18.90;99.90;;;;;;5110850;28;1978;-67
2022/10/31 12:52:55;;;;;;;;;;;18.70;99.90;;;;;;5110494;28;1239;-67
2022/10/31 12:55:32;;;;;;;;;;;18.50;99.90;;;;;;5108002;28;1144;-67
2022/10/31 12:57:59;;;;;;;;;;;18.40;99.90;;;;;;5110464;28;1153;-67
2022/10/31 13:00:26;;;;;;;;;;;18.30;99.90;;;;;;5094048;28;1093;-67
2022/10/31 13:02:56;;;;;;;;;;;18.20;99.90;;;;;;5110890;28;1037;-67
2022/10/31 13:05:31;;;;;;;;;;;18.20;99.90;;;;;;5110778;28;1785;-67
2022/10/31 13:07:59;;;;;;;;;;;18.10;99.90;;;;;;5109601;28;1646;-67
2022/10/31 13:10:29;;;;;;;;;;;18.00;99.90;;;;;;5110732;28;1914;-67
2022/10/31 13:12:58;;;;;;;;;;;17.90;99.90;;;;;;5107105;28;1057;-67
2022/10/31 13:15:26;;;;;;;;;;;17.80;99.90;;;;;;5111305;28;1218;-67
2022/10/31 13:17:55;;;;;;;;;;;17.70;99.90;;;;;;5110925;28;1084;-67
2022/10/31 13:20:26;;;;;;;;;;;17.70;99.90;;;;;;5111381;28;1168;-67
2022/10/31 13:22:54;;;;;;;;;;;17.70;99.90;;;;;;5110987;28;1152;-67
2022/10/31 13:25:30;;;;;;;;;;;17.70;99.90;;;;;;5110244;28;1195;-67
2022/10/31 13:28:00;;;;;;;;;;;17.70;99.90;;;;;;5110731;28;1084;-67
2022/10/31 13:30:29;;;;;;;;;;;17.70;99.90;;;;;;5095811;28;1967;-67
2022/10/31 13:33:00;;;;;;;;;;;17.70;99.90;;;;;;5110074;28;1122;-67
2022/10/31 13:35:40;;;;;;;;;;;17.70;99.90;;;;;;5111285;28;1154;-67
2022/10/31 13:38:18;;;;;;;;;;;17.60;99.90;;;;;;5111133;28;1187;-67
2022/10/31 13:40:44;;;;;;;;;;;17.50;99.90;;;;;;5109248;28;1052;-68
2022/10/31 13:43:20;;;;;;;;;;;17.40;99.90;;;;;;5111182;28;1179;-67
2022/10/31 13:45:48;;;;;;;;;;;17.40;99.90;;;;;;5091800;28;1168;-67
2022/10/31 13:48:13;;;;;;;;;;;17.60;99.90;;;;;;5110427;28;1143;-67
2022/10/31 13:50:39;;;;;;;;;;;17.90;99.90;;;;;;5108833;28;1910;-67
2022/10/31 13:53:13;;;;;;;;;;;18.20;99.90;;;;;;5109662;28;1061;-67
2022/10/31 13:55:38;;;;;;;;;;;18.40;99.90;;;;;;5110502;28;1179;-67
2022/10/31 13:58:16;;;;;;;;;;;18.80;99.90;;;;;;5106018;28;1219;-67
2022/10/31 14:00:43;;;;;;;;;;;19.50;99.90;;;;;;5107030;28;1263;-67
2022/10/31 14:03:17;;;;;;;;;;;20.20;99.90;;;;;;5110144;28;1234;-67
2022/10/31 14:05:51;;;;;;;;;;;20.80;99.90;;;;;;5110638;28;1338;-67
2022/10/31 14:08:18;;;;;;;;;;;21.10;99.90;;;;;;5104944;28;2974;-67
2022/10/31 14:10:49;;;;;;;;;;;21.20;99.90;;;;;;5108734;28;1910;-68
2022/10/31 14:13:20;;;;;;;;;;;21.00;99.90;;;;;;5110654;28;1112;-67
2022/10/31 14:15:54;;;;;;;;;;;20.80;99.90;;;;;;5109405;28;1100;-67
2022/10/31 14:18:23;;;;;;;;;;;20.50;99.90;;;;;;5097265;28;1176;-67
2022/10/31 14:20:48;;;;;;;;;;;20.30;99.90;;;;;;5109837;28;1069;-67
2022/10/31 14:23:30;;;;;;;;;;;20.00;99.90;;;;;;5110284;28;1096;-67
2022/10/31 14:26:14;;;;;;;;;;;19.70;99.90;;;;;;5109607;28;1092;-67
2022/10/31 14:28:40;;;;;;;;;;;19.40;99.90;;;;;;5087813;28;1200;-67
2022/10/31 14:31:24;;;;;;;;;;;19.10;99.90;;;;;;5090611;28;1914;-67
2022/10/31 14:33:49;;;;;;;;;;;18.80;99.90;;;;;;5109703;28;1084;-67
2022/10/31 14:36:19;;;;;;;;;;;18.60;99.90;;;;;;5109262;28;1338;-67
2022/10/31 14:38:44;;;;;;;;;;;18.40;99.90;;;;;;5108986;28;1136;-67
2022/10/31 14:41:23;;;;;;;;;;;18.20;99.90;;;;;;5109661;28;1092;-67
2022/10/31 14:43:57;;;;;;;;;;;18.00;99.90;;;;;;5091068;28;1061;-67
2022/10/31 14:46:34;;;;;;;;;;;17.90;99.90;;;;;;5109806;28;1151;-67
2022/10/31 14:49:20;;;;;;;;;;;17.90;99.90;;;;;;5108630;28;2017;-67
2022/10/31 14:51:46;;;;;;;;;;;17.70;99.90;;;;;;5107403;28;1241;-67
2022/10/31 14:54:15;;;;;;;;;;;17.70;99.90;;;;;;5109276;28;1189;-67